Time;durP1;ratioP1;P1;durP2;ratioP2;P2;SDS_P1;SDS_P2;PMS_P1;PMS_P2;Temp;Humidity;BMP_temperature;BMP_pressure;BME280_temperature;BME280_humidity;BME280_pressure;Samples;Min_cycle;Max_cycle;Signal;HPM_P1;HPM_P2
2022/10/10 00:01:17;;;;;;;5.35;4.68;;;8.90;99.90;;;;;;5074476;28;20215;-65
2022/10/10 00:03:46;;;;;;;5.20;4.68;;;8.90;99.90;;;;;;5073674;28;20726;-65
2022/10/10 00:06:15;;;;;;;5.55;4.43;;;8.80;99.90;;;;;;5074052;28;20224;-65
2022/10/10 00:08:43;;;;;;;9.48;5.20;;;8.80;99.90;;;;;;5068484;28;20686;-65
2022/10/10 00:11:13;;;;;;;8.55;4.47;;;8.80;99.90;;;;;;5074290;28;20211;-65
2022/10/10 00:13:42;;;;;;;8.13;5.10;;;8.80;99.90;;;;;;5073605;28;20200;-65
2022/10/10 00:16:11;;;;;;;7.22;5.40;;;8.90;99.90;;;;;;5072247;28;20196;-65
2022/10/10 00:18:39;;;;;;;6.97;5.05;;;8.90;99.90;;;;;;5070936;28;20211;-65
2022/10/10 00:21:09;;;;;;;5.30;4.80;;;8.90;99.90;;;;;;5059724;28;20196;-65
2022/10/10 00:23:37;;;;;;;6.22;5.00;;;8.70;99.90;;;;;;5062952;28;20203;-65
2022/10/10 00:26:05;;;;;;;9.57;5.75;;;8.70;99.90;;;;;;5064518;28;20212;-65
2022/10/10 00:28:37;;;;;;;6.85;4.93;;;8.60;99.90;;;;;;5054785;28;20682;-65
2022/10/10 00:31:07;;;;;;;6.97;5.10;;;8.70;99.90;;;;;;5059169;28;20195;-65
2022/10/10 00:33:35;;;;;;;8.25;4.90;;;8.70;99.90;;;;;;5069383;28;20197;-64
2022/10/10 00:36:04;;;;;;;5.20;4.70;;;8.70;99.90;;;;;;5070933;28;20208;-66
2022/10/10 00:38:32;;;;;;;11.30;5.00;;;8.60;99.90;;;;;;5059777;28;20682;-64
2022/10/10 00:41:00;;;;;;;5.85;5.25;;;8.60;99.90;;;;;;5066703;28;20204;-64
2022/10/10 00:43:29;;;;;;;7.15;5.85;;;8.50;99.90;;;;;;5073689;28;20261;-65
2022/10/10 00:45:57;;;;;;;6.25;5.20;;;8.40;99.90;;;;;;5054085;28;20247;-65
2022/10/10 00:48:30;;;;;;;7.63;6.25;;;8.40;99.90;;;;;;5053768;28;20211;-66
2022/10/10 00:51:01;;;;;;;6.75;5.80;;;8.40;99.90;;;;;;5053931;28;20303;-66
2022/10/10 00:53:33;;;;;;;8.82;5.95;;;8.40;99.90;;;;;;5053774;28;20216;-66
2022/10/10 00:56:02;;;;;;;6.50;5.28;;;8.40;99.90;;;;;;5056059;28;20185;-66
2022/10/10 00:58:32;;;;;;;6.60;5.28;;;8.40;99.90;;;;;;5073435;28;20212;-66
2022/10/10 01:00:59;;;;;;;6.15;5.22;;;8.50;99.90;;;;;;5056398;28;20595;-66
2022/10/10 01:03:29;;;;;;;5.60;5.10;;;8.60;99.90;;;;;;5056833;28;20553;-66
2022/10/10 01:05:57;;;;;;;7.90;5.75;;;8.50;99.90;;;;;;5073386;28;20702;-64
2022/10/10 01:08:25;;;;;;;6.03;4.55;;;8.50;99.90;;;;;;5073774;28;20211;-66
2022/10/10 01:11:15;;;;;;;5.70;4.47;;;8.50;99.90;;;;;;5073983;28;20204;-66
2022/10/10 01:13:51;;;;;;;10.15;4.78;;;8.50;99.90;;;;;;5071883;28;20184;-66
2022/10/10 01:16:27;;;;;;;6.07;4.70;;;8.40;99.90;;;;;;5073710;28;20195;-66
2022/10/10 01:19:07;;;;;;;5.25;4.85;;;8.40;99.90;;;;;;5073443;28;20188;-66
2022/10/10 01:21:45;;;;;;;8.50;5.15;;;8.50;99.90;;;;;;5073009;28;20195;-66
2022/10/10 01:24:44;;;;;;;7.00;5.00;;;8.50;99.90;;;;;;5071071;28;20632;-66
2022/10/10 01:27:25;;;;;;;6.20;5.18;;;8.50;99.90;;;;;;5055551;28;20209;-66
2022/10/10 01:29:57;;;;;;;8.27;5.15;;;8.40;99.90;;;;;;5053317;28;20644;-66
2022/10/10 01:32:31;;;;;;;6.50;5.50;;;8.20;99.90;;;;;;5052517;28;20196;-66
2022/10/10 01:35:16;;;;;;;5.85;4.35;;;8.20;99.90;;;;;;5053372;28;20193;-66
2022/10/10 01:37:49;;;;;;;8.38;5.00;;;8.10;99.90;;;;;;5051742;28;20181;-66
2022/10/10 01:40:25;;;;;;;7.90;5.43;;;8.10;99.90;;;;;;5052786;28;20627;-66
2022/10/10 01:42:55;;;;;;;7.35;5.72;;;8.10;99.90;;;;;;5051705;28;20553;-66
2022/10/10 01:45:26;;;;;;;8.77;5.78;;;8.10;99.90;;;;;;5052343;28;20185;-66
2022/10/10 01:47:57;;;;;;;7.53;6.15;;;8.10;99.90;;;;;;5052732;28;20224;-66
2022/10/10 01:50:27;;;;;;;7.30;5.55;;;8.10;99.90;;;;;;5052936;28;20232;-66
2022/10/10 01:53:09;;;;;;;7.50;4.57;;;8.10;99.90;;;;;;5051330;28;20204;-66
2022/10/10 01:55:57;;;;;;;10.45;5.30;;;8.20;99.90;;;;;;5053751;28;20180;-66
2022/10/10 01:58:52;;;;;;;5.25;4.75;;;8.10;99.90;;;;;;5052423;28;20188;-66
2022/10/10 02:01:26;;;;;;;6.05;4.80;;;8.20;99.90;;;;;;5052373;28;20208;-66
2022/10/10 02:04:01;;;;;;;6.07;4.72;;;8.20;99.90;;;;;;5052648;28;20192;-66
2022/10/10 02:06:36;;;;;;;7.82;4.25;;;8.20;99.90;;;;;;5052596;28;20200;-66
2022/10/10 02:09:08;;;;;;;6.20;4.60;;;8.30;99.90;;;;;;5058177;28;20594;-67
2022/10/10 02:11:39;;;;;;;5.88;3.88;;;8.20;99.90;;;;;;5051339;28;20535;-66
2022/10/10 02:14:12;;;;;;;5.93;4.70;;;8.20;99.90;;;;;;5052128;28;20568;-66
2022/10/10 02:16:45;;;;;;;4.63;4.22;;;8.10;99.90;;;;;;5052135;28;20189;-66
2022/10/10 02:19:17;;;;;;;7.68;4.38;;;8.00;99.90;;;;;;5051818;28;20268;-66
2022/10/10 02:21:47;;;;;;;7.57;5.03;;;8.10;99.90;;;;;;5051002;28;20196;-66
2022/10/10 02:24:15;;;;;;;10.75;4.85;;;8.10;99.90;;;;;;5053661;28;20192;-66
2022/10/10 02:26:46;;;;;;;7.60;5.38;;;8.10;99.90;;;;;;5063184;28;20216;-66
2022/10/10 02:29:19;;;;;;;4.93;4.43;;;8.00;99.90;;;;;;5052063;28;20207;-66
2022/10/10 02:32:02;;;;;;;6.95;4.25;;;8.00;99.90;;;;;;5052489;28;20241;-67
2022/10/10 02:34:34;;;;;;;5.43;4.88;;;8.00;99.90;;;;;;5052382;28;20705;-67
2022/10/10 02:37:06;;;;;;;8.25;4.55;;;8.00;99.90;;;;;;5052112;28;20180;-68
2022/10/10 02:39:36;;;;;;;5.20;4.80;;;8.10;99.90;;;;;;5066352;28;20188;-68
2022/10/10 02:42:06;;;;;;;6.97;4.40;;;8.20;99.90;;;;;;5071050;28;20645;-68
2022/10/10 02:44:35;;;;;;;6.53;4.97;;;8.10;99.90;;;;;;5071828;28;20529;-67
2022/10/10 02:47:05;;;;;;;6.00;4.78;;;8.00;99.90;;;;;;5071449;28;20207;-67
2022/10/10 02:49:35;;;;;;;5.53;4.30;;;8.10;99.90;;;;;;5071647;28;20196;-67
2022/10/10 02:52:03;;;;;;;4.45;4.05;;;8.00;99.90;;;;;;5056473;28;20195;-68
2022/10/10 02:54:31;;;;;;;8.93;4.70;;;7.90;99.90;;;;;;5070685;28;20199;-68
2022/10/10 02:56:59;;;;;;;4.38;3.97;;;7.90;99.90;;;;;;5070136;28;20231;-67
2022/10/10 02:59:27;;;;;;;4.32;3.90;;;7.90;99.90;;;;;;5055757;28;20207;-67
2022/10/10 03:01:55;;;;;;;4.75;4.32;;;7.80;99.90;;;;;;5056208;28;20200;-67
2022/10/10 03:04:25;;;;;;;4.18;3.90;;;7.80;99.90;;;;;;5051452;28;20208;-67
2022/10/10 03:06:53;;;;;;;6.15;4.22;;;7.80;99.90;;;;;;5037619;28;20213;-67
2022/10/10 03:09:27;;;;;;;4.15;3.75;;;7.80;99.90;;;;;;5053938;28;20196;-68
2022/10/10 03:11:55;;;;;;;12.93;3.80;;;7.80;99.90;;;;;;5058182;28;20571;-67
2022/10/10 03:14:28;;;;;;;5.80;3.60;;;7.80;99.90;;;;;;5051831;28;20223;-67
2022/10/10 03:16:56;;;;;;;4.55;4.05;;;7.70;99.90;;;;;;5051619;28;20208;-67
2022/10/10 03:19:26;;;;;;;7.22;4.40;;;7.70;99.90;;;;;;5057483;28;20199;-67
2022/10/10 03:21:54;;;;;;;8.18;5.63;;;7.70;99.90;;;;;;5051672;28;20196;-66
2022/10/10 03:24:22;;;;;;;6.55;5.53;;;7.60;99.90;;;;;;5051043;28;20203;-66
2022/10/10 03:26:50;;;;;;;6.25;4.78;;;7.50;99.90;;;;;;5051448;28;20551;-66
2022/10/10 03:29:18;;;;;;;8.48;6.10;;;7.50;99.90;;;;;;5051019;28;20614;-66
2022/10/10 03:31:46;;;;;;;8.35;5.10;;;7.50;99.90;;;;;;5049551;28;20214;-66
2022/10/10 03:34:14;;;;;;;7.85;4.75;;;7.60;99.90;;;;;;5050822;28;20216;-66
2022/10/10 03:36:44;;;;;;;7.53;5.45;;;7.50;99.90;;;;;;5050450;28;20693;-66
2022/10/10 03:39:14;;;;;;;5.30;4.80;;;7.40;99.90;;;;;;5050965;28;20209;-66
2022/10/10 03:41:42;;;;;;;5.50;4.75;;;7.40;99.90;;;;;;5050925;28;20196;-66
2022/10/10 03:44:10;;;;;;;6.75;5.30;;;7.50;99.90;;;;;;5051211;28;20223;-66
2022/10/10 03:46:38;;;;;;;7.20;5.05;;;7.40;99.90;;;;;;5050554;28;20295;-66
2022/10/10 03:49:06;;;;;;;7.72;4.55;;;7.40;99.90;;;;;;5050729;28;20223;-66
2022/10/10 03:51:34;;;;;;;5.88;5.32;;;7.30;99.90;;;;;;5050278;28;20309;-65
2022/10/10 03:54:04;;;;;;;13.07;5.25;;;7.20;99.90;;;;;;5050617;28;20208;-66
2022/10/10 03:56:32;;;;;;;8.63;4.75;;;7.10;99.90;;;;;;5050031;28;20221;-66
2022/10/10 03:59:02;;;;;;;7.35;5.00;;;7.10;99.90;;;;;;5050480;28;20201;-66
2022/10/10 04:01:30;;;;;;;9.10;4.80;;;7.20;99.90;;;;;;5049513;28;20189;-66
2022/10/10 04:03:58;;;;;;;8.45;4.65;;;7.20;99.90;;;;;;5051102;28;20205;-66
2022/10/10 04:06:27;;;;;;;4.65;4.25;;;7.20;99.90;;;;;;5051723;28;20203;-66
2022/10/10 04:08:55;;;;;;;6.18;4.70;;;7.10;99.90;;;;;;5053643;28;20228;-66
2022/10/10 04:11:24;;;;;;;7.07;4.78;;;7.10;99.90;;;;;;5053183;28;20545;-66
2022/10/10 04:13:52;;;;;;;9.43;4.03;;;7.30;99.90;;;;;;5054328;28;20227;-65
2022/10/10 04:16:20;;;;;;;6.07;4.53;;;7.30;99.90;;;;;;5051891;28;20223;-66
2022/10/10 04:18:48;;;;;;;18.38;4.25;;;7.20;99.90;;;;;;5053485;28;20205;-66
2022/10/10 04:21:16;;;;;;;8.38;4.88;;;7.20;99.90;;;;;;5053503;28;20211;-66
2022/10/10 04:23:44;;;;;;;10.25;4.03;;;7.20;99.90;;;;;;5053802;28;20197;-66
2022/10/10 04:26:12;;;;;;;10.77;5.00;;;7.00;99.90;;;;;;5051838;28;20201;-66
2022/10/10 04:28:42;;;;;;;6.10;5.07;;;6.90;99.90;;;;;;5052697;28;20224;-66
2022/10/10 04:31:10;;;;;;;9.15;4.50;;;7.00;99.90;;;;;;5053300;28;20204;-66
2022/10/10 04:33:38;;;;;;;5.28;4.78;;;7.00;99.90;;;;;;5053980;28;20258;-65
2022/10/10 04:36:11;;;;;;;5.60;4.40;;;6.90;99.90;;;;;;5060387;28;20204;-66
2022/10/10 04:38:39;;;;;;;9.48;4.88;;;7.00;99.90;;;;;;5073997;28;20518;-65
2022/10/10 04:41:07;;;;;;;9.02;4.47;;;7.10;99.90;;;;;;5065330;28;20568;-66
2022/10/10 04:43:35;;;;;;;8.88;4.45;;;7.10;99.90;;;;;;5073711;28;20503;-65
2022/10/10 04:46:04;;;;;;;6.90;4.63;;;7.20;99.90;;;;;;5063669;28;20254;-65
2022/10/10 04:48:32;;;;;;;8.00;5.20;;;7.30;99.90;;;;;;5071526;28;20208;-66
2022/10/10 04:51:01;;;;;;;6.22;4.03;;;7.50;99.90;;;;;;5068458;28;20228;-65
2022/10/10 04:53:29;;;;;;;8.30;5.20;;;7.40;99.90;;;;;;5052963;28;20251;-65
2022/10/10 04:55:57;;;;;;;7.18;5.03;;;7.40;99.90;;;;;;5058708;28;20200;-65
2022/10/10 04:58:25;;;;;;;7.00;5.88;;;7.60;99.90;;;;;;5073558;28;20203;-65
2022/10/10 05:00:53;;;;;;;9.57;6.53;;;7.70;99.90;;;;;;5073538;28;20204;-65
2022/10/10 05:03:24;;;;;;;12.98;8.50;;;7.90;99.90;;;;;;5067875;28;20193;-65
2022/10/10 05:05:53;;;;;;;9.85;8.77;;;8.00;99.90;;;;;;5067386;28;20188;-65
2022/10/10 05:08:21;;;;;;;6.45;5.80;;;8.10;99.90;;;;;;5072845;28;20227;-65
2022/10/10 05:10:51;;;;;;;5.57;5.10;;;8.10;99.90;;;;;;5072095;28;20212;-66
2022/10/10 05:13:20;;;;;;;5.03;4.53;;;8.20;99.90;;;;;;5070135;28;20245;-65
2022/10/10 05:15:51;;;;;;;5.68;5.18;;;8.20;99.90;;;;;;5066562;28;20215;-66
2022/10/10 05:18:19;;;;;;;5.55;4.30;;;8.40;99.90;;;;;;5051905;28;20637;-65
2022/10/10 05:20:49;;;;;;;6.60;5.40;;;8.40;99.90;;;;;;5064445;28;20236;-66
2022/10/10 05:23:17;;;;;;;5.55;5.03;;;8.30;99.90;;;;;;5058681;28;20189;-65
2022/10/10 05:25:47;;;;;;;9.52;5.35;;;8.40;99.90;;;;;;5062227;28;20639;-65
2022/10/10 05:28:15;;;;;;;13.30;5.28;;;8.40;99.90;;;;;;5053329;28;20239;-65
2022/10/10 05:30:43;;;;;;;5.32;4.07;;;8.50;99.90;;;;;;5052969;28;20209;-67
2022/10/10 05:33:11;;;;;;;6.45;4.93;;;8.50;99.90;;;;;;5061627;28;20200;-65
2022/10/10 05:35:39;;;;;;;5.53;4.30;;;8.60;99.90;;;;;;5073633;28;20623;-66
2022/10/10 05:38:09;;;;;;;6.00;4.70;;;8.60;99.90;;;;;;5063338;28;20196;-65
2022/10/10 05:40:39;;;;;;;10.45;4.97;;;8.50;99.90;;;;;;5061127;28;20196;-66
2022/10/10 05:43:08;;;;;;;6.95;5.90;;;8.50;99.90;;;;;;5061964;28;20196;-65
2022/10/10 05:45:36;;;;;;;5.65;4.93;;;8.70;99.90;;;;;;5061749;28;20219;-65
2022/10/10 05:48:04;;;;;;;9.60;4.38;;;8.70;99.90;;;;;;5057029;28;20204;-66
2022/10/10 05:50:37;;;;;;;7.30;5.28;;;8.80;99.90;;;;;;5052310;28;20730;-66
2022/10/10 05:53:06;;;;;;;16.83;5.15;;;8.70;99.90;;;;;;5052592;28;20181;-66
2022/10/10 05:55:35;;;;;;;6.90;5.40;;;8.80;99.90;;;;;;5066503;28;20201;-65
2022/10/10 05:58:05;;;;;;;7.32;5.43;;;8.80;99.90;;;;;;5051518;28;20221;-65
2022/10/10 06:00:33;;;;;;;5.45;4.97;;;8.90;99.90;;;;;;5052290;28;20254;-66
2022/10/10 06:03:02;;;;;;;6.15;4.90;;;8.80;99.90;;;;;;5051664;28;20694;-65
2022/10/10 06:05:30;;;;;;;4.82;4.43;;;8.80;99.90;;;;;;5052358;28;20211;-64
2022/10/10 06:07:58;;;;;;;10.68;4.50;;;8.80;99.90;;;;;;5063081;28;20192;-64
2022/10/10 06:10:26;;;;;;;21.60;7.20;;;8.90;99.90;;;;;;5069031;28;20215;-64
2022/10/10 06:12:55;;;;;;;27.85;15.65;;;8.90;99.90;;;;;;5072480;28;20890;-64
2022/10/10 06:15:23;;;;;;;20.52;9.55;;;9.00;99.90;;;;;;5061238;28;20218;-64
2022/10/10 06:17:51;;;;;;;16.33;9.70;;;9.10;99.90;;;;;;5072119;28;20203;-64
2022/10/10 06:20:19;;;;;;;10.98;6.53;;;9.00;99.90;;;;;;5066479;28;20201;-64
2022/10/10 06:22:47;;;;;;;5.93;5.00;;;9.10;99.90;;;;;;5057590;28;20201;-64
2022/10/10 06:25:15;;;;;;;6.80;4.82;;;9.10;99.90;;;;;;5065160;28;20203;-64
2022/10/10 06:27:43;;;;;;;7.03;5.15;;;9.10;99.90;;;;;;5052315;28;20656;-65
2022/10/10 06:30:13;;;;;;;7.10;4.70;;;9.10;99.90;;;;;;5066999;28;20216;-65
2022/10/10 06:32:41;;;;;;;7.68;5.30;;;9.10;99.90;;;;;;5066303;28;20188;-66
2022/10/10 06:35:09;;;;;;;7.13;5.85;;;9.20;99.90;;;;;;5071121;28;20199;-65
2022/10/10 06:37:37;;;;;;;10.55;5.45;;;9.20;99.90;;;;;;5059258;28;20566;-66
2022/10/10 06:40:06;;;;;;;6.15;5.65;;;9.20;99.90;;;;;;5051813;28;20667;-66
2022/10/10 06:42:34;;;;;;;6.72;5.65;;;9.10;99.90;;;;;;5060707;28;20199;-65
2022/10/10 06:45:03;;;;;;;7.03;6.22;;;9.10;99.90;;;;;;5070073;28;20207;-65
2022/10/10 06:47:32;;;;;;;11.30;6.57;;;9.20;99.90;;;;;;5055529;28;20200;-65
2022/10/10 06:50:01;;;;;;;6.65;5.57;;;9.20;99.90;;;;;;5050314;28;20232;-65
2022/10/10 06:52:32;;;;;;;9.63;6.70;;;9.30;99.90;;;;;;5056182;28;20230;-64
2022/10/10 06:55:00;;;;;;;7.90;5.90;;;9.50;99.90;;;;;;5064683;28;20192;-64
2022/10/10 06:57:28;;;;;;;8.35;6.72;;;9.60;99.90;;;;;;5061220;28;20239;-64
2022/10/10 06:59:56;;;;;;;7.57;6.93;;;9.70;99.90;;;;;;5062462;28;20189;-65
2022/10/10 07:02:26;;;;;;;20.55;8.50;;;9.90;99.90;;;;;;5056198;28;20192;-65
2022/10/10 07:04:55;;;;;;;10.40;6.50;;;9.80;99.90;;;;;;5059802;28;20205;-65
2022/10/10 07:07:23;;;;;;;8.80;6.00;;;9.70;99.90;;;;;;5057239;28;20204;-65
2022/10/10 07:09:56;;;;;;;8.70;5.90;;;9.80;99.90;;;;;;5054342;28;20224;-66
2022/10/10 07:12:24;;;;;;;8.70;5.80;;;9.90;99.90;;;;;;5052515;28;20205;-65
2022/10/10 07:14:52;;;;;;;10.13;6.00;;;9.90;99.90;;;;;;5053003;28;20269;-66
2022/10/10 07:17:20;;;;;;;12.27;6.55;;;10.10;99.90;;;;;;5055570;28;20261;-66
2022/10/10 07:19:48;;;;;;;11.10;8.70;;;10.00;99.90;;;;;;5057054;28;20191;-66
2022/10/10 07:22:17;;;;;;;13.55;8.10;;;10.20;99.90;;;;;;5057415;28;20209;-65
2022/10/10 07:24:45;;;;;;;8.52;6.70;;;10.40;99.90;;;;;;5070493;28;20200;-64
2022/10/10 07:27:14;;;;;;;10.90;8.13;;;10.70;99.90;;;;;;5053526;28;20211;-66
2022/10/10 07:29:42;;;;;;;8.55;7.75;;;10.90;99.90;;;;;;5053806;28;20690;-65
2022/10/10 07:32:10;;;;;;;13.50;6.07;;;11.00;99.90;;;;;;5071245;28;20557;-65
2022/10/10 07:34:38;;;;;;;11.23;6.15;;;11.10;99.90;;;;;;5061399;28;20193;-65
2022/10/10 07:37:06;;;;;;;10.45;7.32;;;11.20;99.90;;;;;;5050231;28;20663;-65
2022/10/10 07:39:35;;;;;;;7.80;6.70;;;11.50;99.90;;;;;;5065615;28;20200;-66
2022/10/10 07:42:04;;;;;;;8.20;7.40;;;11.60;99.90;;;;;;5072825;28;20546;-64
2022/10/10 07:44:32;;;;;;;9.15;7.10;;;11.60;99.90;;;;;;5064641;28;20655;-64
2022/10/10 07:46:59;;;;;;;9.43;7.55;;;11.70;99.90;;;;;;5067264;28;20199;-63
2022/10/10 07:49:28;;;;;;;10.70;7.25;;;11.80;99.90;;;;;;5074903;28;20286;-64
2022/10/10 07:51:56;;;;;;;10.82;7.03;;;11.90;99.90;;;;;;5076769;28;20192;-65
2022/10/10 07:54:24;;;;;;;10.02;8.45;;;12.10;99.90;;;;;;5058709;28;20212;-67
2022/10/10 07:56:53;;;;;;;14.65;6.47;;;12.30;99.90;;;;;;5056655;28;20228;-66
2022/10/10 07:59:21;;;;;;;19.65;13.77;;;12.20;99.90;;;;;;5056707;28;20645;-66
2022/10/10 08:01:50;;;;;;;8.75;7.95;;;12.40;99.90;;;;;;5054285;28;20201;-65
2022/10/10 08:04:19;;;;;;;11.75;6.90;;;12.50;99.90;;;;;;5058434;28;20465;-65
2022/10/10 08:06:47;;;;;;;22.52;11.15;;;12.50;99.90;;;;;;5053771;28;20208;-65
2022/10/10 08:09:15;;;;;;;11.70;8.65;;;12.80;99.90;;;;;;5056489;28;20322;-65
2022/10/10 08:11:43;;;;;;;10.20;8.35;;;12.80;99.90;;;;;;5061453;28;20640;-66
2022/10/10 08:14:12;;;;;;;10.10;7.20;;;13.00;99.90;;;;;;5066222;28;20204;-67
2022/10/10 08:16:41;;;;;;;9.25;7.72;;;13.30;99.90;;;;;;5069398;28;20631;-67
2022/10/10 08:19:10;;;;;;;8.90;8.10;;;13.30;99.90;;;;;;5075163;28;20276;-66
2022/10/10 08:21:38;;;;;;;10.43;8.10;;;13.40;99.90;;;;;;5058024;28;20587;-66
2022/10/10 08:24:07;;;;;;;9.27;7.70;;;13.50;99.90;;;;;;5054579;28;21159;-66
2022/10/10 08:26:35;;;;;;;9.03;8.23;;;13.70;99.90;;;;;;5057667;28;20628;-65
2022/10/10 08:29:03;;;;;;;31.57;15.30;;;13.80;99.90;;;;;;5073129;28;20610;-66
2022/10/10 08:31:32;;;;;;;12.17;9.17;;;13.90;99.90;;;;;;5073125;28;20636;-66
2022/10/10 08:34:00;;;;;;;9.17;8.03;;;14.10;99.90;;;;;;5073429;28;21200;-64
2022/10/10 08:36:29;;;;;;;9.90;8.90;;;14.10;99.90;;;;;;5068505;28;20754;-64
2022/10/10 08:38:58;;;;;;;33.93;21.63;;;14.10;99.90;;;;;;5056674;28;20602;-64
2022/10/10 08:41:37;;;;;;;10.40;8.33;;;14.20;99.90;;;;;;5066934;28;20654;-64
2022/10/10 08:44:13;;;;;;;9.00;7.83;;;14.20;99.90;;;;;;5057343;28;20580;-64
2022/10/10 08:46:48;;;;;;;10.63;8.43;;;14.40;99.90;;;;;;5062103;28;20600;-64
2022/10/10 08:49:24;;;;;;;11.90;8.50;;;14.50;99.90;;;;;;5054198;28;20633;-64
2022/10/10 08:52:01;;;;;;;11.30;8.00;;;14.60;99.90;;;;;;5052214;28;20646;-65
2022/10/10 08:54:31;;;;;;;11.57;7.83;;;14.70;99.90;;;;;;5053969;28;20633;-65
2022/10/10 08:57:01;;;;;;;8.53;7.73;;;15.00;99.90;;;;;;5062467;28;21257;-64
2022/10/10 08:59:33;;;;;;;8.03;7.37;;;14.70;99.90;;;;;;5052868;28;20616;-64
2022/10/10 09:02:28;;;;;;;7.90;7.10;;;14.60;99.90;;;;;;5033811;28;20578;-64
2022/10/10 09:04:56;;;;;;;9.27;7.40;;;14.90;99.90;;;;;;5033122;28;20638;-64
2022/10/10 09:07:42;;;;;;;12.63;8.03;;;14.80;99.90;;;;;;5046864;28;20618;-65
2022/10/10 09:10:18;;;;;;;8.53;7.53;;;14.90;99.90;;;;;;5034615;28;20644;-66
2022/10/10 09:12:56;;;;;;;11.77;7.97;;;15.00;99.90;;;;;;5032860;28;20594;-66
2022/10/10 09:15:26;;;;;;;14.13;7.37;;;14.90;99.90;;;;;;5033896;28;20607;-67
2022/10/10 09:18:06;;;;;;;8.73;7.87;;;15.00;99.90;;;;;;5033662;28;20611;-67
2022/10/10 09:20:47;;;;;;;6.53;5.93;;;15.20;99.90;;;;;;5036788;28;21154;-66
2022/10/10 09:23:22;;;;;;;10.30;6.40;;;15.20;99.90;;;;;;5033435;28;20647;-67
2022/10/10 09:25:56;;;;;;;7.00;6.37;;;15.40;99.90;;;;;;5033437;28;20566;-67
2022/10/10 09:28:35;;;;;;;7.83;6.30;;;15.60;99.90;;;;;;5044942;28;20602;-65
2022/10/10 09:31:08;;;;;;;10.80;7.37;;;15.70;99.90;;;;;;5051967;28;20665;-67
2022/10/10 09:33:42;;;;;;;22.53;8.50;;;15.90;99.90;;;;;;5034314;28;20609;-68
2022/10/10 09:36:14;;;;;;;14.97;7.27;;;16.00;99.90;;;;;;5039735;28;20611;-68
2022/10/10 09:38:47;;;;;;;8.37;5.70;;;16.00;99.90;;;;;;5043966;28;20582;-67
2022/10/10 09:41:20;;;;;;;8.77;6.67;;;16.10;99.90;;;;;;5034146;28;20600;-67
2022/10/10 09:43:54;;;;;;;8.90;6.40;;;16.10;99.90;;;;;;5045775;28;20685;-67
2022/10/10 09:46:24;;;;;;;6.63;5.93;;;16.20;99.90;;;;;;5035411;28;20574;-66
2022/10/10 09:48:57;;;;;;;7.03;5.50;;;16.30;99.90;;;;;;5051955;28;20652;-67
2022/10/10 09:51:25;;;;;;;7.80;6.43;;;16.50;99.90;;;;;;5038920;28;20634;-66
2022/10/10 09:53:53;;;;;;;7.90;6.33;;;16.70;99.90;;;;;;5044188;28;20688;-66
2022/10/10 09:56:24;;;;;;;6.53;5.90;;;16.60;99.90;;;;;;5032447;28;20655;-66
2022/10/10 09:58:55;;;;;;;7.93;5.60;;;16.70;99.90;;;;;;5036676;28;20703;-64
2022/10/10 10:01:24;;;;;;;7.10;5.73;;;16.90;99.90;;;;;;5039978;28;20623;-65
2022/10/10 10:04:12;;;;;;;5.77;5.17;;;17.10;99.90;;;;;;5037356;28;21231;-65
2022/10/10 10:06:44;;;;;;;8.53;5.40;;;17.20;99.90;;;;;;5051462;28;20669;-64
2022/10/10 10:09:17;;;;;;;6.97;5.40;;;17.40;99.90;;;;;;5034982;28;20610;-64
2022/10/10 10:11:47;;;;;;;6.67;4.93;;;17.50;99.90;;;;;;5036410;28;20639;-65
2022/10/10 10:14:25;;;;;;;4.90;4.50;;;17.30;99.90;;;;;;5038693;28;20632;-65
2022/10/10 10:16:56;;;;;;;11.30;6.33;;;17.50;99.90;;;;;;5050681;28;20633;-65
2022/10/10 10:19:34;;;;;;;7.80;4.73;;;17.80;99.90;;;;;;5035642;28;20627;-66
2022/10/10 10:22:03;;;;;;;6.70;5.50;;;17.80;99.90;;;;;;5033881;28;20581;-66
2022/10/10 10:24:35;;;;;;;5.10;4.67;;;18.00;99.90;;;;;;5043963;28;20627;-66
2022/10/10 10:27:16;;;;;;;5.67;4.37;;;17.90;99.90;;;;;;5039017;28;20662;-65
2022/10/10 10:29:47;;;;;;;4.80;4.33;;;18.10;99.90;;;;;;5031484;28;20584;-65
2022/10/10 10:32:30;;;;;;;5.10;4.53;;;18.30;99.90;;;;;;5031912;28;20962;-66
2022/10/10 10:35:19;;;;;;;10.43;4.07;;;18.40;99.90;;;;;;5031242;28;20627;-65
2022/10/10 10:38:20;;;;;;;6.83;4.20;;;18.60;99.90;;;;;;5032358;28;20642;-65
2022/10/10 10:40:58;;;;;;;8.00;4.33;;;18.90;99.90;;;;;;5048413;28;21566;-65
2022/10/10 10:44:00;;;;;;;5.40;4.70;;;18.70;99.90;;;;;;5049220;28;20614;-66
2022/10/10 10:46:41;;;;;;;9.10;4.80;;;18.90;99.90;;;;;;5012851;28;20632;-66
2022/10/10 10:49:15;;;;;;;6.20;4.37;;;19.30;99.90;;;;;;5044188;28;20993;-66
2022/10/10 10:52:01;;;;;;;5.73;3.90;;;19.70;99.90;;;;;;5033663;28;20716;-66
2022/10/10 10:54:45;;;;;;;5.07;3.77;;;19.80;99.90;;;;;;5045547;28;20628;-64
2022/10/10 10:57:18;;;;;;;5.23;3.40;;;20.10;99.90;;;;;;5048721;28;20650;-65
2022/10/10 10:59:57;;;;;;;5.53;4.13;;;20.60;99.90;;;;;;5032515;28;20600;-64
2022/10/10 11:02:50;;;;;;;5.33;4.27;;;20.60;99.90;;;;;;5047356;28;21183;-65
2022/10/10 11:05:35;;;;;;;6.20;3.43;;;20.70;99.90;;;;;;5047719;28;21216;-65
2022/10/10 11:08:21;;;;;;;8.70;3.47;;;20.70;99.90;;;;;;5052640;28;20638;-65
2022/10/10 11:11:03;;;;;;;13.73;4.27;;;20.50;99.90;;;;;;5041468;28;20647;-65
2022/10/10 11:13:39;;;;;;;5.90;3.97;;;20.70;99.90;;;;;;5044267;28;21137;-65
2022/10/10 11:16:14;;;;;;;3.73;3.23;;;21.20;99.90;;;;;;5047508;28;20666;-65
2022/10/10 11:18:52;;;;;;;3.77;3.47;;;20.90;99.90;;;;;;5051262;28;20630;-65
2022/10/10 11:21:23;;;;;;;7.37;4.27;;;21.70;99.90;;;;;;5036505;28;20588;-65
2022/10/10 11:23:57;;;;;;;6.20;3.57;;;21.70;99.90;;;;;;5039033;28;21259;-66
2022/10/10 11:26:29;;;;;;;9.57;3.93;;;21.70;99.90;;;;;;5049517;28;20971;-65
2022/10/10 11:29:02;;;;;;;3.83;3.53;;;21.90;99.90;;;;;;5056228;28;20594;-65
2022/10/10 11:31:33;;;;;;;5.07;3.40;;;22.50;99.90;;;;;;5052223;28;20642;-65
2022/10/10 11:34:06;;;;;;;9.43;3.57;;;22.90;99.90;;;;;;5051655;28;20967;-66
2022/10/10 11:36:37;;;;;;;4.37;3.90;;;22.70;99.90;;;;;;5035498;28;20600;-67
2022/10/10 11:39:14;;;;;;;5.93;3.47;;;22.90;99.90;;;;;;5035513;28;20667;-66
2022/10/10 11:41:47;;;;;;;5.43;3.57;;;23.20;99.90;;;;;;5035540;28;20580;-66
2022/10/10 11:44:19;;;;;;;6.00;3.43;;;23.30;99.90;;;;;;5044561;28;21752;-66
2022/10/10 11:46:54;;;;;;;5.40;3.70;;;23.00;99.90;;;;;;5054571;28;20611;-65
2022/10/10 11:49:29;;;;;;;6.27;3.97;;;23.40;99.90;;;;;;5049983;28;20611;-66
2022/10/10 11:52:16;;;;;;;7.40;3.63;;;23.20;99.90;;;;;;5050561;28;20646;-65
2022/10/10 11:54:55;;;;;;;5.33;3.30;;;22.70;99.90;;;;;;5035767;28;20595;-66
2022/10/10 11:57:31;;;;;;;7.93;3.97;;;23.10;99.90;;;;;;5034395;28;21073;-66
2022/10/10 12:00:05;;;;;;;6.90;3.70;;;23.50;99.90;;;;;;5041585;28;20695;-65
2022/10/10 12:02:36;;;;;;;4.70;3.67;;;23.30;99.90;;;;;;5048882;28;20623;-66
2022/10/10 12:05:05;;;;;;;12.77;4.27;;;23.20;99.90;;;;;;5036670;28;20707;-66
2022/10/10 12:07:40;;;;;;;4.60;3.20;;;23.50;99.90;;;;;;5042263;28;21185;-66
2022/10/10 12:10:16;;;;;;;6.60;3.83;;;23.30;99.90;;;;;;5042485;28;20598;-66
2022/10/10 12:12:47;;;;;;;5.13;3.90;;;23.50;99.90;;;;;;5042425;28;20715;-65
2022/10/10 12:15:24;;;;;;;8.10;3.87;;;23.80;99.90;;;;;;5043275;28;20599;-66
2022/10/10 12:17:52;;;;;;;4.43;4.03;;;23.70;99.90;;;;;;5043448;28;20628;-67
2022/10/10 12:20:34;;;;;;;8.30;4.27;;;23.20;99.90;;;;;;5036399;28;21205;-66
2022/10/10 12:23:21;;;;;;;5.50;3.37;;;23.40;99.90;;;;;;5047626;28;20607;-66
2022/10/10 12:25:50;;;;;;;6.90;4.10;;;23.90;99.90;;;;;;5043501;28;20742;-66
2022/10/10 12:28:34;;;;;;;4.77;3.60;;;23.90;99.90;;;;;;5040128;28;20626;-66
2022/10/10 12:31:26;;;;;;;6.73;3.57;;;23.90;99.90;;;;;;5034357;28;20587;-66
2022/10/10 12:34:33;;;;;;;10.90;4.07;;;23.90;99.90;;;;;;5035271;28;21118;-66
2022/10/10 12:37:21;;;;;;;11.37;4.40;;;24.20;99.90;;;;;;5041579;28;20625;-66
2022/10/10 12:40:27;;;;;;;12.40;4.93;;;24.70;99.90;;;;;;5074841;28;20601;-66
2022/10/10 12:43:25;;;;;;;7.97;3.60;;;24.10;99.90;;;;;;5074826;28;21010;-66
2022/10/10 12:46:26;;;;;;;8.20;3.87;;;24.50;99.90;;;;;;5075408;28;20609;-66
2022/10/10 12:48:59;;;;;;;9.13;3.80;;;24.50;99.90;;;;;;5073846;28;20635;-66
2022/10/10 12:51:29;;;;;;;6.97;4.50;;;24.90;99.90;;;;;;5075106;28;20649;-66
2022/10/10 12:54:00;;;;;;;10.93;4.00;;;24.60;99.90;;;;;;5074581;28;20689;-66
2022/10/10 12:56:37;;;;;;;7.70;4.17;;;24.50;99.90;;;;;;5075635;28;21226;-66
2022/10/10 12:59:19;;;;;;;13.80;4.30;;;24.40;99.90;;;;;;5034737;28;20635;-66
2022/10/10 13:01:51;;;;;;;7.87;4.57;;;24.30;99.90;;;;;;5032704;28;20961;-65
2022/10/10 13:04:20;;;;;;;8.27;4.23;;;25.10;99.90;;;;;;5051073;28;21175;-65
2022/10/10 13:06:56;;;;;;;6.40;4.53;;;24.70;99.90;;;;;;5052401;28;20615;-65
2022/10/10 13:09:26;;;;;;;8.90;4.53;;;24.40;99.90;;;;;;5051008;28;20591;-66
2022/10/10 13:11:57;;;;;;;7.70;5.10;;;24.80;99.90;;;;;;5054644;28;20700;-67
2022/10/10 13:14:28;;;;;;;8.33;4.00;;;24.60;99.90;;;;;;5035584;28;20623;-66
2022/10/10 13:16:56;;;;;;;12.13;4.50;;;24.70;99.90;;;;;;5042078;28;21031;-66